sensor_id;sensor_type;location;lat;lon;timestamp;temperature;humidity
11188;DHT22;5650;52.700;7.306;2022-12-07T00:01:40;4.80;99.90
11188;DHT22;5650;52.700;7.306;2022-12-07T00:04:10;4.70;99.90
11188;DHT22;5650;52.700;7.306;2022-12-07T00:06:41;4.70;99.90
11188;DHT22;5650;52.700;7.306;2022-12-07T00:09:13;4.70;99.90
11188;DHT22;5650;52.700;7.306;2022-12-07T00:11:41;4.70;99.90
11188;DHT22;5650;52.700;7.306;2022-12-07T00:14:11;4.60;99.90
11188;DHT22;5650;52.700;7.306;2022-12-07T00:16:39;4.60;99.90
11188;DHT22;5650;52.700;7.306;2022-12-07T00:19:09;4.60;99.90
11188;DHT22;5650;52.700;7.306;2022-12-07T00:21:36;4.50;99.90
11188;DHT22;5650;52.700;7.306;2022-12-07T00:24:10;4.50;99.90
11188;DHT22;5650;52.700;7.306;2022-12-07T00:26:41;4.50;99.90
11188;DHT22;5650;52.700;7.306;2022-12-07T00:29:15;4.50;99.90
11188;DHT22;5650;52.700;7.306;2022-12-07T00:31:43;4.50;99.90
11188;DHT22;5650;52.700;7.306;2022-12-07T00:34:13;4.50;99.90
11188;DHT22;5650;52.700;7.306;2022-12-07T00:36:41;4.50;99.90
11188;DHT22;5650;52.700;7.306;2022-12-07T00:39:09;4.60;99.90
11188;DHT22;5650;52.700;7.306;2022-12-07T00:41:37;4.50;99.90
11188;DHT22;5650;52.700;7.306;2022-12-07T00:44:04;4.60;99.90
11188;DHT22;5650;52.700;7.306;2022-12-07T00:46:33;4.50;99.90
11188;DHT22;5650;52.700;7.306;2022-12-07T00:49:07;4.50;99.90
11188;DHT22;5650;52.700;7.306;2022-12-07T00:51:34;4.50;99.90
11188;DHT22;5650;52.700;7.306;2022-12-07T00:54:19;4.40;99.90
11188;DHT22;5650;52.700;7.306;2022-12-07T00:56:52;4.40;99.90
11188;DHT22;5650;52.700;7.306;2022-12-07T00:59:19;4.30;99.90
11188;DHT22;5650;52.700;7.306;2022-12-07T01:01:47;4.30;99.90
11188;DHT22;5650;52.700;7.306;2022-12-07T01:04:14;4.30;99.90
11188;DHT22;5650;52.700;7.306;2022-12-07T01:06:41;4.20;99.90
11188;DHT22;5650;52.700;7.306;2022-12-07T01:09:08;4.20;99.90
11188;DHT22;5650;52.700;7.306;2022-12-07T01:11:40;4.20;99.90
11188;DHT22;5650;52.700;7.306;2022-12-07T01:14:13;4.20;99.90
11188;DHT22;5650;52.700;7.306;2022-12-07T01:16:40;4.10;99.90
11188;DHT22;5650;52.700;7.306;2022-12-07T01:19:10;4.10;99.90
11188;DHT22;5650;52.700;7.306;2022-12-07T01:21:38;4.10;99.90
11188;DHT22;5650;52.700;7.306;2022-12-07T01:24:10;4.10;99.90
11188;DHT22;5650;52.700;7.306;2022-12-07T01:26:39;4.10;99.90
11188;DHT22;5650;52.700;7.306;2022-12-07T01:29:06;4.10;99.90
11188;DHT22;5650;52.700;7.306;2022-12-07T01:31:36;4.20;99.90
11188;DHT22;5650;52.700;7.306;2022-12-07T01:34:04;4.20;99.90
11188;DHT22;5650;52.700;7.306;2022-12-07T01:36:37;4.20;99.90
11188;DHT22;5650;52.700;7.306;2022-12-07T01:39:06;4.20;99.90
11188;DHT22;5650;52.700;7.306;2022-12-07T01:41:35;4.20;99.90
11188;DHT22;5650;52.700;7.306;2022-12-07T01:44:12;4.20;99.90
11188;DHT22;5650;52.700;7.306;2022-12-07T01:46:40;4.20;99.90
11188;DHT22;5650;52.700;7.306;2022-12-07T01:49:12;4.20;99.90
11188;DHT22;5650;52.700;7.306;2022-12-07T01:51:41;4.20;99.90
11188;DHT22;5650;52.700;7.306;2022-12-07T01:54:13;4.20;99.90
11188;DHT22;5650;52.700;7.306;2022-12-07T01:56:55;4.20;99.90
11188;DHT22;5650;52.700;7.306;2022-12-07T01:59:32;4.20;99.90
11188;DHT22;5650;52.700;7.306;2022-12-07T02:02:02;4.20;99.90
11188;DHT22;5650;52.700;7.306;2022-12-07T02:04:31;4.20;99.90
11188;DHT22;5650;52.700;7.306;2022-12-07T02:07:03;4.20;99.90
11188;DHT22;5650;52.700;7.306;2022-12-07T02:09:31;4.10;99.90
11188;DHT22;5650;52.700;7.306;2022-12-07T02:11:58;4.10;99.90
11188;DHT22;5650;52.700;7.306;2022-12-07T02:14:27;4.10;99.90
11188;DHT22;5650;52.700;7.306;2022-12-07T02:17:06;4.10;99.90
11188;DHT22;5650;52.700;7.306;2022-12-07T02:23:20;4.00;99.90
11188;DHT22;5650;52.700;7.306;2022-12-07T02:26:11;4.00;99.90
11188;DHT22;5650;52.700;7.306;2022-12-07T02:29:09;4.00;99.90
11188;DHT22;5650;52.700;7.306;2022-12-07T02:31:43;3.90;99.90
11188;DHT22;5650;52.700;7.306;2022-12-07T02:34:21;3.90;99.90
11188;DHT22;5650;52.700;7.306;2022-12-07T02:36:55;3.90;99.90
11188;DHT22;5650;52.700;7.306;2022-12-07T02:39:28;3.90;99.90
11188;DHT22;5650;52.700;7.306;2022-12-07T02:42:14;3.90;99.90
11188;DHT22;5650;52.700;7.306;2022-12-07T02:44:50;3.80;99.90
11188;DHT22;5650;52.700;7.306;2022-12-07T02:47:20;3.80;99.90
11188;DHT22;5650;52.700;7.306;2022-12-07T02:49:52;3.80;99.90
11188;DHT22;5650;52.700;7.306;2022-12-07T02:52:25;3.70;99.90
11188;DHT22;5650;52.700;7.306;2022-12-07T02:54:52;3.70;99.90
11188;DHT22;5650;52.700;7.306;2022-12-07T02:57:49;3.60;99.90
11188;DHT22;5650;52.700;7.306;2022-12-07T03:00:22;3.60;99.90
11188;DHT22;5650;52.700;7.306;2022-12-07T03:02:55;3.60;99.90
11188;DHT22;5650;52.700;7.306;2022-12-07T03:05:52;3.60;99.90
11188;DHT22;5650;52.700;7.306;2022-12-07T03:08:30;3.60;99.90
11188;DHT22;5650;52.700;7.306;2022-12-07T03:11:02;3.60;99.90
11188;DHT22;5650;52.700;7.306;2022-12-07T03:13:34;3.60;99.90
11188;DHT22;5650;52.700;7.306;2022-12-07T03:16:10;3.60;99.90
11188;DHT22;5650;52.700;7.306;2022-12-07T03:18:44;3.70;99.90
11188;DHT22;5650;52.700;7.306;2022-12-07T03:21:23;3.70;99.90
11188;DHT22;5650;52.700;7.306;2022-12-07T03:23:55;3.70;99.90
11188;DHT22;5650;52.700;7.306;2022-12-07T03:26:28;3.80;99.90
11188;DHT22;5650;52.700;7.306;2022-12-07T03:28:59;3.90;99.90
11188;DHT22;5650;52.700;7.306;2022-12-07T03:31:32;3.90;99.90
11188;DHT22;5650;52.700;7.306;2022-12-07T03:34:11;3.90;99.90
11188;DHT22;5650;52.700;7.306;2022-12-07T03:36:54;3.90;99.90
11188;DHT22;5650;52.700;7.306;2022-12-07T03:39:27;3.90;99.90
11188;DHT22;5650;52.700;7.306;2022-12-07T03:41:57;4.00;99.90
11188;DHT22;5650;52.700;7.306;2022-12-07T03:44:33;4.00;99.90
11188;DHT22;5650;52.700;7.306;2022-12-07T03:47:05;4.00;99.90
11188;DHT22;5650;52.700;7.306;2022-12-07T03:49:40;4.00;99.90
11188;DHT22;5650;52.700;7.306;2022-12-07T03:52:17;4.00;99.90
11188;DHT22;5650;52.700;7.306;2022-12-07T03:54:56;4.00;99.90
11188;DHT22;5650;52.700;7.306;2022-12-07T03:57:33;4.00;99.90
11188;DHT22;5650;52.700;7.306;2022-12-07T04:00:04;4.00;99.90
11188;DHT22;5650;52.700;7.306;2022-12-07T04:02:33;4.00;99.90
11188;DHT22;5650;52.700;7.306;2022-12-07T04:05:13;4.00;99.90
11188;DHT22;5650;52.700;7.306;2022-12-07T04:07:41;4.00;99.90
11188;DHT22;5650;52.700;7.306;2022-12-07T04:10:09;4.00;99.90
11188;DHT22;5650;52.700;7.306;2022-12-07T04:12:36;3.90;99.90
11188;DHT22;5650;52.700;7.306;2022-12-07T04:15:04;3.90;99.90
11188;DHT22;5650;52.700;7.306;2022-12-07T04:17:33;3.90;99.90
11188;DHT22;5650;52.700;7.306;2022-12-07T04:20:00;3.80;99.90
11188;DHT22;5650;52.700;7.306;2022-12-07T04:22:27;3.80;99.90
11188;DHT22;5650;52.700;7.306;2022-12-07T04:24:55;3.90;99.90
11188;DHT22;5650;52.700;7.306;2022-12-07T04:27:22;3.90;99.90
11188;DHT22;5650;52.700;7.306;2022-12-07T04:29:49;3.80;99.90
11188;DHT22;5650;52.700;7.306;2022-12-07T04:32:16;3.90;99.90
11188;DHT22;5650;52.700;7.306;2022-12-07T04:34:45;3.90;99.90
11188;DHT22;5650;52.700;7.306;2022-12-07T04:37:12;3.90;99.90
11188;DHT22;5650;52.700;7.306;2022-12-07T04:39:42;3.90;99.90
11188;DHT22;5650;52.700;7.306;2022-12-07T04:42:18;3.80;99.90
11188;DHT22;5650;52.700;7.306;2022-12-07T04:44:45;3.80;99.90
11188;DHT22;5650;52.700;7.306;2022-12-07T04:47:12;3.80;99.90
11188;DHT22;5650;52.700;7.306;2022-12-07T04:49:39;3.80;99.90
11188;DHT22;5650;52.700;7.306;2022-12-07T04:52:08;3.80;99.90
11188;DHT22;5650;52.700;7.306;2022-12-07T04:54:41;3.80;99.90
11188;DHT22;5650;52.700;7.306;2022-12-07T04:57:08;3.80;99.90
11188;DHT22;5650;52.700;7.306;2022-12-07T04:59:38;3.80;99.90
11188;DHT22;5650;52.700;7.306;2022-12-07T05:02:08;3.90;99.90
11188;DHT22;5650;52.700;7.306;2022-12-07T05:04:39;3.90;99.90
11188;DHT22;5650;52.700;7.306;2022-12-07T05:07:07;3.90;99.90
11188;DHT22;5650;52.700;7.306;2022-12-07T05:09:43;3.90;99.90
11188;DHT22;5650;52.700;7.306;2022-12-07T05:12:10;3.90;99.90
11188;DHT22;5650;52.700;7.306;2022-12-07T05:14:41;3.90;99.90
11188;DHT22;5650;52.700;7.306;2022-12-07T05:17:08;3.90;99.90
11188;DHT22;5650;52.700;7.306;2022-12-07T05:19:43;3.80;99.90
11188;DHT22;5650;52.700;7.306;2022-12-07T05:22:14;3.80;99.90
11188;DHT22;5650;52.700;7.306;2022-12-07T05:24:41;3.70;99.90
11188;DHT22;5650;52.700;7.306;2022-12-07T05:27:08;3.70;99.90
11188;DHT22;5650;52.700;7.306;2022-12-07T05:29:41;3.70;99.90
11188;DHT22;5650;52.700;7.306;2022-12-07T05:32:09;3.60;99.90
11188;DHT22;5650;52.700;7.306;2022-12-07T05:34:36;3.60;99.90
11188;DHT22;5650;52.700;7.306;2022-12-07T05:37:03;3.60;99.90
11188;DHT22;5650;52.700;7.306;2022-12-07T05:39:32;3.50;99.90
11188;DHT22;5650;52.700;7.306;2022-12-07T05:41:59;3.50;99.90
11188;DHT22;5650;52.700;7.306;2022-12-07T05:44:38;3.50;99.90
11188;DHT22;5650;52.700;7.306;2022-12-07T05:47:06;3.40;99.90
11188;DHT22;5650;52.700;7.306;2022-12-07T05:49:34;3.40;99.90
11188;DHT22;5650;52.700;7.306;2022-12-07T05:52:01;3.40;99.90
11188;DHT22;5650;52.700;7.306;2022-12-07T05:54:36;3.30;99.90
11188;DHT22;5650;52.700;7.306;2022-12-07T05:57:03;3.30;99.90
11188;DHT22;5650;52.700;7.306;2022-12-07T05:59:38;3.30;99.90
11188;DHT22;5650;52.700;7.306;2022-12-07T06:02:08;3.30;99.90
11188;DHT22;5650;52.700;7.306;2022-12-07T06:04:43;3.30;99.90
11188;DHT22;5650;52.700;7.306;2022-12-07T06:07:15;3.30;99.90
11188;DHT22;5650;52.700;7.306;2022-12-07T06:09:47;3.30;99.90
11188;DHT22;5650;52.700;7.306;2022-12-07T06:12:19;3.30;99.90
11188;DHT22;5650;52.700;7.306;2022-12-07T06:15:00;3.20;99.90
11188;DHT22;5650;52.700;7.306;2022-12-07T06:17:34;3.20;99.90
11188;DHT22;5650;52.700;7.306;2022-12-07T06:20:05;3.20;99.90
11188;DHT22;5650;52.700;7.306;2022-12-07T06:22:33;3.20;99.90
11188;DHT22;5650;52.700;7.306;2022-12-07T06:25:02;3.20;99.90
11188;DHT22;5650;52.700;7.306;2022-12-07T06:27:29;3.20;99.90
11188;DHT22;5650;52.700;7.306;2022-12-07T06:30:05;3.20;99.90
11188;DHT22;5650;52.700;7.306;2022-12-07T06:32:34;3.20;99.90
11188;DHT22;5650;52.700;7.306;2022-12-07T06:35:01;3.20;99.90
11188;DHT22;5650;52.700;7.306;2022-12-07T06:37:31;3.20;99.90
11188;DHT22;5650;52.700;7.306;2022-12-07T06:40:08;3.10;99.90
11188;DHT22;5650;52.700;7.306;2022-12-07T06:42:38;3.10;99.90
11188;DHT22;5650;52.700;7.306;2022-12-07T06:45:06;3.10;99.90
11188;DHT22;5650;52.700;7.306;2022-12-07T06:47:33;3.10;99.90
11188;DHT22;5650;52.700;7.306;2022-12-07T06:50:00;3.10;99.90
11188;DHT22;5650;52.700;7.306;2022-12-07T06:52:28;3.00;99.90
11188;DHT22;5650;52.700;7.306;2022-12-07T06:54:55;3.00;99.90
11188;DHT22;5650;52.700;7.306;2022-12-07T06:57:32;3.00;99.90
11188;DHT22;5650;52.700;7.306;2022-12-07T07:00:00;3.00;99.90
11188;DHT22;5650;52.700;7.306;2022-12-07T07:02:27;3.00;99.90
11188;DHT22;5650;52.700;7.306;2022-12-07T07:04:54;3.00;99.90
11188;DHT22;5650;52.700;7.306;2022-12-07T07:07:22;3.00;99.90
11188;DHT22;5650;52.700;7.306;2022-12-07T07:09:49;2.90;99.90
11188;DHT22;5650;52.700;7.306;2022-12-07T07:12:19;2.90;99.90
11188;DHT22;5650;52.700;7.306;2022-12-07T07:14:48;3.00;99.90
11188;DHT22;5650;52.700;7.306;2022-12-07T07:17:18;3.00;99.90
11188;DHT22;5650;52.700;7.306;2022-12-07T07:19:45;3.00;99.90
11188;DHT22;5650;52.700;7.306;2022-12-07T07:22:12;3.00;99.90
11188;DHT22;5650;52.700;7.306;2022-12-07T07:24:39;3.00;99.90
11188;DHT22;5650;52.700;7.306;2022-12-07T07:27:06;3.00;99.90
11188;DHT22;5650;52.700;7.306;2022-12-07T07:29:34;3.00;99.90
11188;DHT22;5650;52.700;7.306;2022-12-07T07:32:03;3.00;99.90
11188;DHT22;5650;52.700;7.306;2022-12-07T07:34:30;3.00;99.90
11188;DHT22;5650;52.700;7.306;2022-12-07T07:36:57;3.00;99.90
11188;DHT22;5650;52.700;7.306;2022-12-07T07:39:24;3.00;99.90
11188;DHT22;5650;52.700;7.306;2022-12-07T07:41:52;3.00;99.90
11188;DHT22;5650;52.700;7.306;2022-12-07T07:44:19;3.00;99.90
11188;DHT22;5650;52.700;7.306;2022-12-07T07:46:46;3.00;99.90
11188;DHT22;5650;52.700;7.306;2022-12-07T07:49:15;3.00;99.90
11188;DHT22;5650;52.700;7.306;2022-12-07T07:51:42;3.10;99.90
11188;DHT22;5650;52.700;7.306;2022-12-07T07:54:10;3.00;99.90
11188;DHT22;5650;52.700;7.306;2022-12-07T07:56:37;3.00;99.90
11188;DHT22;5650;52.700;7.306;2022-12-07T07:59:04;3.00;99.90
11188;DHT22;5650;52.700;7.306;2022-12-07T08:01:31;3.00;99.90
11188;DHT22;5650;52.700;7.306;2022-12-07T08:03:58;3.00;99.90
11188;DHT22;5650;52.700;7.306;2022-12-07T08:06:27;3.00;99.90
11188;DHT22;5650;52.700;7.306;2022-12-07T08:08:54;3.00;99.90
11188;DHT22;5650;52.700;7.306;2022-12-07T08:11:23;3.00;99.90
11188;DHT22;5650;52.700;7.306;2022-12-07T08:13:51;3.00;99.90
11188;DHT22;5650;52.700;7.306;2022-12-07T08:16:18;3.00;99.90
11188;DHT22;5650;52.700;7.306;2022-12-07T08:18:45;3.00;99.90
11188;DHT22;5650;52.700;7.306;2022-12-07T08:21:14;3.00;99.90
11188;DHT22;5650;52.700;7.306;2022-12-07T08:23:43;3.00;99.90
11188;DHT22;5650;52.700;7.306;2022-12-07T08:26:13;3.00;99.90
11188;DHT22;5650;52.700;7.306;2022-12-07T08:28:41;3.00;99.90
11188;DHT22;5650;52.700;7.306;2022-12-07T08:31:16;3.10;99.90
11188;DHT22;5650;52.700;7.306;2022-12-07T08:33:45;3.10;99.90
11188;DHT22;5650;52.700;7.306;2022-12-07T08:36:19;3.10;99.90
11188;DHT22;5650;52.700;7.306;2022-12-07T08:38:49;3.10;99.90
11188;DHT22;5650;52.700;7.306;2022-12-07T08:41:17;3.20;99.90
11188;DHT22;5650;52.700;7.306;2022-12-07T08:43:45;3.30;99.90
11188;DHT22;5650;52.700;7.306;2022-12-07T08:46:16;3.50;99.90
11188;DHT22;5650;52.700;7.306;2022-12-07T08:48:48;3.60;99.90
11188;DHT22;5650;52.700;7.306;2022-12-07T08:51:20;3.60;99.90
11188;DHT22;5650;52.700;7.306;2022-12-07T08:53:50;3.70;99.90
11188;DHT22;5650;52.700;7.306;2022-12-07T08:56:18;3.80;99.90
11188;DHT22;5650;52.700;7.306;2022-12-07T08:58:49;3.80;99.90
11188;DHT22;5650;52.700;7.306;2022-12-07T09:01:16;3.90;99.90
11188;DHT22;5650;52.700;7.306;2022-12-07T09:03:43;4.00;99.90
11188;DHT22;5650;52.700;7.306;2022-12-07T09:06:10;4.00;99.90
11188;DHT22;5650;52.700;7.306;2022-12-07T09:08:41;4.10;99.90
11188;DHT22;5650;52.700;7.306;2022-12-07T09:11:12;4.10;99.90
11188;DHT22;5650;52.700;7.306;2022-12-07T09:13:39;4.10;99.90
11188;DHT22;5650;52.700;7.306;2022-12-07T09:16:06;4.10;99.90
11188;DHT22;5650;52.700;7.306;2022-12-07T09:18:33;4.10;99.90
11188;DHT22;5650;52.700;7.306;2022-12-07T09:21:01;4.10;99.90
11188;DHT22;5650;52.700;7.306;2022-12-07T09:23:28;4.10;99.90
11188;DHT22;5650;52.700;7.306;2022-12-07T09:25:58;4.00;99.90
11188;DHT22;5650;52.700;7.306;2022-12-07T09:28:27;4.10;99.90
11188;DHT22;5650;52.700;7.306;2022-12-07T09:30:54;4.00;99.90
11188;DHT22;5650;52.700;7.306;2022-12-07T09:33:21;4.10;99.90
11188;DHT22;5650;52.700;7.306;2022-12-07T09:35:49;4.10;99.90
11188;DHT22;5650;52.700;7.306;2022-12-07T09:38:17;4.20;99.90
11188;DHT22;5650;52.700;7.306;2022-12-07T09:40:45;4.30;99.90
11188;DHT22;5650;52.700;7.306;2022-12-07T09:43:14;4.30;99.90
11188;DHT22;5650;52.700;7.306;2022-12-07T09:45:44;4.30;99.90
11188;DHT22;5650;52.700;7.306;2022-12-07T09:48:17;4.30;99.90
11188;DHT22;5650;52.700;7.306;2022-12-07T09:50:46;4.30;99.90
11188;DHT22;5650;52.700;7.306;2022-12-07T09:53:16;4.40;99.90
11188;DHT22;5650;52.700;7.306;2022-12-07T09:55:45;4.50;99.90
11188;DHT22;5650;52.700;7.306;2022-12-07T09:58:19;4.60;99.90
11188;DHT22;5650;52.700;7.306;2022-12-07T10:00:49;4.70;99.90
11188;DHT22;5650;52.700;7.306;2022-12-07T10:03:17;4.80;99.90
11188;DHT22;5650;52.700;7.306;2022-12-07T10:05:46;4.90;99.90
11188;DHT22;5650;52.700;7.306;2022-12-07T10:08:14;4.90;99.90
11188;DHT22;5650;52.700;7.306;2022-12-07T10:10:44;5.00;99.90
11188;DHT22;5650;52.700;7.306;2022-12-07T10:13:13;5.00;99.90
11188;DHT22;5650;52.700;7.306;2022-12-07T10:15:48;5.00;99.90
11188;DHT22;5650;52.700;7.306;2022-12-07T10:18:25;4.90;99.90
11188;DHT22;5650;52.700;7.306;2022-12-07T10:21:02;4.90;99.90
11188;DHT22;5650;52.700;7.306;2022-12-07T10:23:29;4.90;99.90
11188;DHT22;5650;52.700;7.306;2022-12-07T10:25:56;5.00;99.90
11188;DHT22;5650;52.700;7.306;2022-12-07T10:28:34;5.10;99.90
11188;DHT22;5650;52.700;7.306;2022-12-07T10:31:16;5.10;99.90
11188;DHT22;5650;52.700;7.306;2022-12-07T10:33:50;5.20;99.90
11188;DHT22;5650;52.700;7.306;2022-12-07T10:36:21;5.30;99.90
11188;DHT22;5650;52.700;7.306;2022-12-07T10:38:51;5.30;99.90
11188;DHT22;5650;52.700;7.306;2022-12-07T10:41:18;5.40;99.90
11188;DHT22;5650;52.700;7.306;2022-12-07T10:43:48;5.40;99.90
11188;DHT22;5650;52.700;7.306;2022-12-07T10:52:29;5.40;99.90
11188;DHT22;5650;52.700;7.306;2022-12-07T10:55:08;5.40;99.90
11188;DHT22;5650;52.700;7.306;2022-12-07T10:57:47;5.50;99.90
11188;DHT22;5650;52.700;7.306;2022-12-07T11:00:21;5.50;99.90
11188;DHT22;5650;52.700;7.306;2022-12-07T11:02:59;5.60;99.90
11188;DHT22;5650;52.700;7.306;2022-12-07T11:05:38;5.70;99.90
11188;DHT22;5650;52.700;7.306;2022-12-07T11:08:18;5.80;99.90
11188;DHT22;5650;52.700;7.306;2022-12-07T11:10:51;5.70;99.90
11188;DHT22;5650;52.700;7.306;2022-12-07T11:13:39;5.80;99.90
11188;DHT22;5650;52.700;7.306;2022-12-07T11:16:21;5.80;99.90
11188;DHT22;5650;52.700;7.306;2022-12-07T11:18:59;5.80;99.90
11188;DHT22;5650;52.700;7.306;2022-12-07T11:21:34;5.80;99.90
11188;DHT22;5650;52.700;7.306;2022-12-07T11:24:12;5.80;99.90
11188;DHT22;5650;52.700;7.306;2022-12-07T11:26:59;5.80;99.90
11188;DHT22;5650;52.700;7.306;2022-12-07T11:29:44;5.80;99.90
11188;DHT22;5650;52.700;7.306;2022-12-07T11:32:17;5.80;99.90
11188;DHT22;5650;52.700;7.306;2022-12-07T11:34:59;5.90;99.90
11188;DHT22;5650;52.700;7.306;2022-12-07T11:37:31;5.80;99.90
11188;DHT22;5650;52.700;7.306;2022-12-07T11:40:03;5.90;99.90
11188;DHT22;5650;52.700;7.306;2022-12-07T11:42:35;5.80;99.90
11188;DHT22;5650;52.700;7.306;2022-12-07T11:45:14;5.90;99.90
11188;DHT22;5650;52.700;7.306;2022-12-07T11:47:47;5.90;99.90
11188;DHT22;5650;52.700;7.306;2022-12-07T11:50:33;5.90;99.90
11188;DHT22;5650;52.700;7.306;2022-12-07T11:53:03;5.80;99.90
11188;DHT22;5650;52.700;7.306;2022-12-07T11:55:49;5.80;99.90
11188;DHT22;5650;52.700;7.306;2022-12-07T11:58:40;5.80;99.90
11188;DHT22;5650;52.700;7.306;2022-12-07T12:01:29;5.70;99.90
11188;DHT22;5650;52.700;7.306;2022-12-07T12:04:13;5.70;99.90
11188;DHT22;5650;52.700;7.306;2022-12-07T12:06:49;5.70;99.90
11188;DHT22;5650;52.700;7.306;2022-12-07T12:09:26;5.80;99.90
11188;DHT22;5650;52.700;7.306;2022-12-07T12:12:28;5.80;99.90
11188;DHT22;5650;52.700;7.306;2022-12-07T12:15:22;5.80;99.90
11188;DHT22;5650;52.700;7.306;2022-12-07T12:18:18;5.90;99.90
11188;DHT22;5650;52.700;7.306;2022-12-07T12:20:51;5.90;99.90
11188;DHT22;5650;52.700;7.306;2022-12-07T12:23:38;5.90;99.90
11188;DHT22;5650;52.700;7.306;2022-12-07T12:26:15;6.00;99.90
11188;DHT22;5650;52.700;7.306;2022-12-07T12:28:56;6.10;99.90
11188;DHT22;5650;52.700;7.306;2022-12-07T12:31:36;6.20;99.90
11188;DHT22;5650;52.700;7.306;2022-12-07T12:34:30;6.20;99.90
11188;DHT22;5650;52.700;7.306;2022-12-07T12:36:57;6.20;99.90
11188;DHT22;5650;52.700;7.306;2022-12-07T12:39:31;6.20;99.90
11188;DHT22;5650;52.700;7.306;2022-12-07T12:41:59;6.20;99.90
11188;DHT22;5650;52.700;7.306;2022-12-07T12:45:04;6.20;99.90
11188;DHT22;5650;52.700;7.306;2022-12-07T12:48:02;6.20;99.90
11188;DHT22;5650;52.700;7.306;2022-12-07T12:50:39;6.30;99.90
11188;DHT22;5650;52.700;7.306;2022-12-07T12:53:25;6.30;99.90
11188;DHT22;5650;52.700;7.306;2022-12-07T12:56:27;6.30;99.90
11188;DHT22;5650;52.700;7.306;2022-12-07T12:59:22;6.20;99.90
11188;DHT22;5650;52.700;7.306;2022-12-07T13:01:54;6.20;99.90
11188;DHT22;5650;52.700;7.306;2022-12-07T13:04:39;6.10;99.90
11188;DHT22;5650;52.700;7.306;2022-12-07T13:10:38;6.10;99.90
11188;DHT22;5650;52.700;7.306;2022-12-07T13:13:35;6.00;99.90
11188;DHT22;5650;52.700;7.306;2022-12-07T13:16:38;5.90;99.90
11188;DHT22;5650;52.700;7.306;2022-12-07T13:22:52;5.80;99.90
11188;DHT22;5650;52.700;7.306;2022-12-07T13:25:44;5.70;99.90
11188;DHT22;5650;52.700;7.306;2022-12-07T13:28:16;5.70;99.90
11188;DHT22;5650;52.700;7.306;2022-12-07T13:30:47;5.60;99.90
11188;DHT22;5650;52.700;7.306;2022-12-07T13:33:17;5.60;99.90
11188;DHT22;5650;52.700;7.306;2022-12-07T13:35:54;5.60;99.90
11188;DHT22;5650;52.700;7.306;2022-12-07T13:38:29;5.60;99.90
11188;DHT22;5650;52.700;7.306;2022-12-07T13:41:04;5.60;99.90
11188;DHT22;5650;52.700;7.306;2022-12-07T13:43:42;5.60;99.90
11188;DHT22;5650;52.700;7.306;2022-12-07T13:46:11;5.60;99.90
11188;DHT22;5650;52.700;7.306;2022-12-07T13:48:45;5.70;99.90
11188;DHT22;5650;52.700;7.306;2022-12-07T13:51:23;5.70;99.90
11188;DHT22;5650;52.700;7.306;2022-12-07T13:53:55;5.80;99.90
11188;DHT22;5650;52.700;7.306;2022-12-07T13:56:34;5.80;99.90
11188;DHT22;5650;52.700;7.306;2022-12-07T13:59:02;5.80;99.90
11188;DHT22;5650;52.700;7.306;2022-12-07T14:01:32;5.80;99.90
11188;DHT22;5650;52.700;7.306;2022-12-07T14:04:30;5.80;99.90
11188;DHT22;5650;52.700;7.306;2022-12-07T14:07:01;5.80;99.90
11188;DHT22;5650;52.700;7.306;2022-12-07T14:10:00;5.80;99.90
11188;DHT22;5650;52.700;7.306;2022-12-07T14:12:36;5.80;99.90
11188;DHT22;5650;52.700;7.306;2022-12-07T14:15:20;5.90;99.90
11188;DHT22;5650;52.700;7.306;2022-12-07T14:17:51;5.80;99.90
11188;DHT22;5650;52.700;7.306;2022-12-07T14:20:36;5.80;99.90
11188;DHT22;5650;52.700;7.306;2022-12-07T14:23:23;5.80;99.90
11188;DHT22;5650;52.700;7.306;2022-12-07T14:26:07;5.80;99.90
11188;DHT22;5650;52.700;7.306;2022-12-07T14:28:36;5.80;99.90
11188;DHT22;5650;52.700;7.306;2022-12-07T14:31:11;5.80;99.90
11188;DHT22;5650;52.700;7.306;2022-12-07T14:33:44;5.80;99.90
11188;DHT22;5650;52.700;7.306;2022-12-07T14:36:15;5.80;99.90
11188;DHT22;5650;52.700;7.306;2022-12-07T14:38:42;5.80;99.90
11188;DHT22;5650;52.700;7.306;2022-12-07T14:41:14;5.70;99.90
11188;DHT22;5650;52.700;7.306;2022-12-07T14:43:59;5.80;99.90
11188;DHT22;5650;52.700;7.306;2022-12-07T14:46:32;5.80;99.90
11188;DHT22;5650;52.700;7.306;2022-12-07T14:48:59;5.70;99.90
11188;DHT22;5650;52.700;7.306;2022-12-07T14:51:26;5.70;99.90
11188;DHT22;5650;52.700;7.306;2022-12-07T14:54:02;5.70;99.90
11188;DHT22;5650;52.700;7.306;2022-12-07T14:56:32;5.70;99.90
11188;DHT22;5650;52.700;7.306;2022-12-07T14:59:01;5.70;99.90
11188;DHT22;5650;52.700;7.306;2022-12-07T15:01:29;5.70;99.90
11188;DHT22;5650;52.700;7.306;2022-12-07T15:03:56;5.70;99.90
11188;DHT22;5650;52.700;7.306;2022-12-07T15:06:23;5.60;99.90
11188;DHT22;5650;52.700;7.306;2022-12-07T15:08:50;5.60;99.90
11188;DHT22;5650;52.700;7.306;2022-12-07T15:11:18;5.60;99.90
11188;DHT22;5650;52.700;7.306;2022-12-07T15:13:47;5.50;99.90
11188;DHT22;5650;52.700;7.306;2022-12-07T15:16:31;5.50;99.90
11188;DHT22;5650;52.700;7.306;2022-12-07T15:18:58;5.40;99.90
11188;DHT22;5650;52.700;7.306;2022-12-07T15:21:26;5.40;99.90
11188;DHT22;5650;52.700;7.306;2022-12-07T15:23:53;5.40;99.90
11188;DHT22;5650;52.700;7.306;2022-12-07T15:26:21;5.30;99.90
11188;DHT22;5650;52.700;7.306;2022-12-07T15:28:49;5.30;99.90
11188;DHT22;5650;52.700;7.306;2022-12-07T15:31:17;5.30;99.90
11188;DHT22;5650;52.700;7.306;2022-12-07T15:33:44;5.30;99.90
11188;DHT22;5650;52.700;7.306;2022-12-07T15:36:21;5.30;99.90
11188;DHT22;5650;52.700;7.306;2022-12-07T15:38:48;5.30;99.90
11188;DHT22;5650;52.700;7.306;2022-12-07T15:41:16;5.20;99.90
11188;DHT22;5650;52.700;7.306;2022-12-07T15:43:44;5.20;99.90
11188;DHT22;5650;52.700;7.306;2022-12-07T15:46:35;5.20;99.90
11188;DHT22;5650;52.700;7.306;2022-12-07T15:49:02;5.20;99.90
11188;DHT22;5650;52.700;7.306;2022-12-07T15:51:30;5.20;99.90
11188;DHT22;5650;52.700;7.306;2022-12-07T15:53:58;5.10;99.90
11188;DHT22;5650;52.700;7.306;2022-12-07T15:56:25;5.10;99.90
11188;DHT22;5650;52.700;7.306;2022-12-07T15:58:52;5.10;99.90
11188;DHT22;5650;52.700;7.306;2022-12-07T16:01:20;5.00;99.90
11188;DHT22;5650;52.700;7.306;2022-12-07T16:03:48;5.00;99.90
11188;DHT22;5650;52.700;7.306;2022-12-07T16:06:17;5.00;99.90
11188;DHT22;5650;52.700;7.306;2022-12-07T16:08:45;5.00;99.90
11188;DHT22;5650;52.700;7.306;2022-12-07T16:11:13;5.00;99.90
11188;DHT22;5650;52.700;7.306;2022-12-07T16:13:40;5.00;99.90
11188;DHT22;5650;52.700;7.306;2022-12-07T16:16:10;4.90;99.90
11188;DHT22;5650;52.700;7.306;2022-12-07T16:18:38;4.90;99.90
11188;DHT22;5650;52.700;7.306;2022-12-07T16:21:07;4.90;99.90
11188;DHT22;5650;52.700;7.306;2022-12-07T16:23:35;4.90;99.90
11188;DHT22;5650;52.700;7.306;2022-12-07T16:26:06;4.90;99.90
11188;DHT22;5650;52.700;7.306;2022-12-07T16:28:34;4.90;99.90
11188;DHT22;5650;52.700;7.306;2022-12-07T16:31:03;4.90;99.90
11188;DHT22;5650;52.700;7.306;2022-12-07T16:33:33;4.90;99.90
11188;DHT22;5650;52.700;7.306;2022-12-07T16:36:00;4.90;99.90
11188;DHT22;5650;52.700;7.306;2022-12-07T16:38:29;4.90;99.90
11188;DHT22;5650;52.700;7.306;2022-12-07T16:40:56;4.90;99.90
11188;DHT22;5650;52.700;7.306;2022-12-07T16:43:24;4.90;99.90
11188;DHT22;5650;52.700;7.306;2022-12-07T16:45:51;4.90;99.90
11188;DHT22;5650;52.700;7.306;2022-12-07T16:48:19;4.90;99.90
11188;DHT22;5650;52.700;7.306;2022-12-07T16:50:46;4.90;99.90
11188;DHT22;5650;52.700;7.306;2022-12-07T16:53:14;4.90;99.90